Chilchinbito, Arizona
Current Conditions -  °F | °C
As of 8:53 AM on Thursday 23 Oct 2014 (Local Time) from KPGA Reporting Station
Clear Clear  
Wind Chill: 57°   Ceiling: Unl
Heat Index: 57°   Visibility: 10mi
Dew Point: 30°   Wind: 0mph
Humidity: 36%   Direction: NA
Pressure: 30.22"   Gusts: NA
Location:  36.6859°N, 110.268°W
Report Text: KPGA 231453Z AUTO 00000KT 10SM CLR 14/M01 A3022 RMK AO2 SLP193 T01391011 53015
Loading
Personal Weather Stations






























Interactive Weather Map
Tropical Storm Tracking
New forecast layout! Learn more

10-Day Weather Forecast

Advertisements
Track Severe Weather on mobile